sensor_id;sensor_type;location;lat;lon;timestamp;pressure;altitude;pressure_sealevel;temperature
73662;BMP280;61956;52.540;13.382;2022-12-20T00:01:42;110772.34;;;4.99
73662;BMP280;61956;52.540;13.382;2022-12-20T00:04:11;110274.47;;;4.98
73662;BMP280;61956;52.540;13.382;2022-12-20T00:06:40;109994.19;;;4.97
73662;BMP280;61956;52.540;13.382;2022-12-20T00:09:12;110460.22;;;4.99
73662;BMP280;61956;52.540;13.382;2022-12-20T00:11:42;110730.31;;;5.02
73662;BMP280;61956;52.540;13.382;2022-12-20T00:14:11;110657.16;;;5.01
73662;BMP280;61956;52.540;13.382;2022-12-20T00:16:40;110449.06;;;5.00
73662;BMP280;61956;52.540;13.382;2022-12-20T00:19:10;110101.75;;;4.99
73662;BMP280;61956;52.540;13.382;2022-12-20T00:21:39;110388.94;;;5.01
73662;BMP280;61956;52.540;13.382;2022-12-20T00:24:11;110454.31;;;5.02
73662;BMP280;61956;52.540;13.382;2022-12-20T00:26:41;110228.16;;;5.01
73662;BMP280;61956;52.540;13.382;2022-12-20T00:29:10;110175.75;;;5.02
73662;BMP280;61956;52.540;13.382;2022-12-20T00:31:39;111124.41;;;5.07
73662;BMP280;61956;52.540;13.382;2022-12-20T00:34:08;111084.88;;;5.08
73662;BMP280;61956;52.540;13.382;2022-12-20T00:36:38;111384.38;;;5.12
73662;BMP280;61956;52.540;13.382;2022-12-20T00:39:08;111084.97;;;5.10
73662;BMP280;61956;52.540;13.382;2022-12-20T00:41:40;110740.03;;;5.09
73662;BMP280;61956;52.540;13.382;2022-12-20T00:44:09;110722.91;;;5.10
73662;BMP280;61956;52.540;13.382;2022-12-20T00:46:38;110793.44;;;5.10
73662;BMP280;61956;52.540;13.382;2022-12-20T00:49:09;111167.69;;;5.13
73662;BMP280;61956;52.540;13.382;2022-12-20T00:51:38;111545.41;;;5.15
73662;BMP280;61956;52.540;13.382;2022-12-20T00:54:07;111492.19;;;5.17
73662;BMP280;61956;52.540;13.382;2022-12-20T00:56:36;111621.28;;;5.19
73662;BMP280;61956;52.540;13.382;2022-12-20T00:59:08;111360.63;;;5.19
73662;BMP280;61956;52.540;13.382;2022-12-20T01:01:37;111401.13;;;5.20
73662;BMP280;61956;52.540;13.382;2022-12-20T01:04:07;111855.56;;;5.23
73662;BMP280;61956;52.540;13.382;2022-12-20T01:06:36;111477.75;;;5.21
73662;BMP280;61956;52.540;13.382;2022-12-20T01:09:05;111916.75;;;5.24
73662;BMP280;61956;52.540;13.382;2022-12-20T01:11:36;111945.22;;;5.25
73662;BMP280;61956;52.540;13.382;2022-12-20T01:14:11;111308.38;;;5.23
73662;BMP280;61956;52.540;13.382;2022-12-20T01:16:44;112280.16;;;5.28
73662;BMP280;61956;52.540;13.382;2022-12-20T01:19:16;112840.94;;;5.34
73662;BMP280;61956;52.540;13.382;2022-12-20T01:21:45;113350.06;;;5.37
73662;BMP280;61956;52.540;13.382;2022-12-20T01:24:16;113462.19;;;5.39
73662;BMP280;61956;52.540;13.382;2022-12-20T01:26:47;113420.19;;;5.42
73662;BMP280;61956;52.540;13.382;2022-12-20T01:29:20;113655.44;;;5.43
73662;BMP280;61956;52.540;13.382;2022-12-20T01:31:49;113315.19;;;5.42
73662;BMP280;61956;52.540;13.382;2022-12-20T01:34:19;113924.47;;;5.46
73662;BMP280;61956;52.540;13.382;2022-12-20T01:36:48;114035.84;;;5.49
73662;BMP280;61956;52.540;13.382;2022-12-20T01:39:17;113620.53;;;5.48
73662;BMP280;61956;52.540;13.382;2022-12-20T01:41:47;113172.56;;;5.46
73662;BMP280;61956;52.540;13.382;2022-12-20T01:47:36;112621.31;;;5.44
73662;BMP280;61956;52.540;13.382;2022-12-20T01:50:09;112188.97;;;5.42
73662;BMP280;61956;52.540;13.382;2022-12-20T01:52:40;111759.34;;;5.40
73662;BMP280;61956;52.540;13.382;2022-12-20T01:55:16;110795.31;;;5.35
73662;BMP280;61956;52.540;13.382;2022-12-20T01:57:50;110343.56;;;5.32
73662;BMP280;61956;52.540;13.382;2022-12-20T02:00:23;109901.44;;;5.30
73662;BMP280;61956;52.540;13.382;2022-12-20T02:02:58;109763.78;;;5.28
73662;BMP280;61956;52.540;13.382;2022-12-20T02:05:34;109461.97;;;5.26
73662;BMP280;61956;52.540;13.382;2022-12-20T02:08:05;110092.38;;;5.30
73662;BMP280;61956;52.540;13.382;2022-12-20T02:10:46;110064.00;;;5.30
73662;BMP280;61956;52.540;13.382;2022-12-20T02:13:32;109760.41;;;5.29
73662;BMP280;61956;52.540;13.382;2022-12-20T02:16:14;109799.97;;;5.29
73662;BMP280;61956;52.540;13.382;2022-12-20T02:18:56;110211.13;;;5.33
73662;BMP280;61956;52.540;13.382;2022-12-20T02:21:38;110683.50;;;5.36
73662;BMP280;61956;52.540;13.382;2022-12-20T02:24:40;111313.53;;;5.41
73662;BMP280;61956;52.540;13.382;2022-12-20T02:27:34;111759.59;;;5.45
73662;BMP280;61956;52.540;13.382;2022-12-20T02:30:19;112236.75;;;5.49
73662;BMP280;61956;52.540;13.382;2022-12-20T02:32:55;112037.94;;;5.50
73662;BMP280;61956;52.540;13.382;2022-12-20T02:35:30;111972.50;;;5.50
73662;BMP280;61956;52.540;13.382;2022-12-20T02:38:26;112242.09;;;5.52
73662;BMP280;61956;52.540;13.382;2022-12-20T02:41:01;112991.72;;;5.58
73662;BMP280;61956;52.540;13.382;2022-12-20T02:43:37;112020.09;;;5.53
73662;BMP280;61956;52.540;13.382;2022-12-20T02:46:25;112073.50;;;5.55
73662;BMP280;61956;52.540;13.382;2022-12-20T02:48:59;112715.38;;;5.60
73662;BMP280;61956;52.540;13.382;2022-12-20T02:51:31;112824.03;;;5.61
73662;BMP280;61956;52.540;13.382;2022-12-20T02:54:01;113152.41;;;5.64
73662;BMP280;61956;52.540;13.382;2022-12-20T02:56:37;113772.31;;;5.70
73662;BMP280;61956;52.540;13.382;2022-12-20T02:59:15;113651.72;;;5.70
73662;BMP280;61956;52.540;13.382;2022-12-20T03:01:52;113443.28;;;5.71
73662;BMP280;61956;52.540;13.382;2022-12-20T03:04:25;113052.88;;;5.69
73662;BMP280;61956;52.540;13.382;2022-12-20T03:06:58;113095.13;;;5.70
73662;BMP280;61956;52.540;13.382;2022-12-20T03:09:30;112851.28;;;5.69
73662;BMP280;61956;52.540;13.382;2022-12-20T03:12:01;112831.50;;;5.70
73662;BMP280;61956;52.540;13.382;2022-12-20T03:14:34;112688.50;;;5.69
73662;BMP280;61956;52.540;13.382;2022-12-20T03:17:09;112844.66;;;5.73
73662;BMP280;61956;52.540;13.382;2022-12-20T03:19:38;113097.31;;;5.75
73662;BMP280;61956;52.540;13.382;2022-12-20T03:22:07;113034.34;;;5.75
73662;BMP280;61956;52.540;13.382;2022-12-20T03:24:36;113012.91;;;5.76
73662;BMP280;61956;52.540;13.382;2022-12-20T03:27:11;113687.03;;;5.80
73662;BMP280;61956;52.540;13.382;2022-12-20T03:29:40;113871.91;;;5.85
73662;BMP280;61956;52.540;13.382;2022-12-20T03:32:13;113456.28;;;5.83
73662;BMP280;61956;52.540;13.382;2022-12-20T03:34:43;113676.34;;;5.86
73662;BMP280;61956;52.540;13.382;2022-12-20T03:37:16;113581.56;;;5.86
73662;BMP280;61956;52.540;13.382;2022-12-20T03:39:45;113326.38;;;5.85
73662;BMP280;61956;52.540;13.382;2022-12-20T03:42:14;113376.53;;;5.87
73662;BMP280;61956;52.540;13.382;2022-12-20T03:44:43;113639.59;;;5.90
73662;BMP280;61956;52.540;13.382;2022-12-20T03:47:15;113416.34;;;5.89
73662;BMP280;61956;52.540;13.382;2022-12-20T03:49:45;113621.66;;;5.91
73662;BMP280;61956;52.540;13.382;2022-12-20T03:52:15;113283.72;;;5.90
73662;BMP280;61956;52.540;13.382;2022-12-20T03:54:44;112725.06;;;5.87
73662;BMP280;61956;52.540;13.382;2022-12-20T03:57:16;112368.38;;;5.87
73662;BMP280;61956;52.540;13.382;2022-12-20T03:59:48;110564.47;;;5.75
73662;BMP280;61956;52.540;13.382;2022-12-20T04:02:22;109889.59;;;5.71
73662;BMP280;61956;52.540;13.382;2022-12-20T04:04:52;109424.84;;;5.67
73662;BMP280;61956;52.540;13.382;2022-12-20T04:07:22;109891.25;;;5.69
73662;BMP280;61956;52.540;13.382;2022-12-20T04:09:51;109018.75;;;5.65
73662;BMP280;61956;52.540;13.382;2022-12-20T04:12:21;108975.72;;;5.64
73662;BMP280;61956;52.540;13.382;2022-12-20T04:14:50;108578.34;;;5.62
73662;BMP280;61956;52.540;13.382;2022-12-20T04:17:22;109896.41;;;5.69
73662;BMP280;61956;52.540;13.382;2022-12-20T04:19:51;110316.47;;;5.72
73662;BMP280;61956;52.540;13.382;2022-12-20T04:22:21;110056.53;;;5.71
73662;BMP280;61956;52.540;13.382;2022-12-20T04:24:58;109276.00;;;5.67
73662;BMP280;61956;52.540;13.382;2022-12-20T04:27:31;108138.06;;;5.60
73662;BMP280;61956;52.540;13.382;2022-12-20T04:30:06;108953.38;;;5.64
73662;BMP280;61956;52.540;13.382;2022-12-20T04:32:39;108589.56;;;5.61
73662;BMP280;61956;52.540;13.382;2022-12-20T04:35:09;107383.25;;;5.54
73662;BMP280;61956;52.540;13.382;2022-12-20T04:37:41;107094.50;;;5.51
73662;BMP280;61956;52.540;13.382;2022-12-20T04:40:11;107718.47;;;5.56
73662;BMP280;61956;52.540;13.382;2022-12-20T04:42:47;106723.28;;;5.49
73662;BMP280;61956;52.540;13.382;2022-12-20T04:45:17;108014.25;;;5.57
73662;BMP280;61956;52.540;13.382;2022-12-20T04:47:50;109250.19;;;5.66
73662;BMP280;61956;52.540;13.382;2022-12-20T04:50:25;108721.09;;;5.63
73662;BMP280;61956;52.540;13.382;2022-12-20T04:52:54;108525.91;;;5.62
73662;BMP280;61956;52.540;13.382;2022-12-20T04:55:37;107960.94;;;5.59
73662;BMP280;61956;52.540;13.382;2022-12-20T04:58:06;106572.84;;;5.50
73662;BMP280;61956;52.540;13.382;2022-12-20T05:00:39;105174.78;;;5.40
73662;BMP280;61956;52.540;13.382;2022-12-20T05:03:24;105605.88;;;5.41
73662;BMP280;61956;52.540;13.382;2022-12-20T05:05:55;105114.78;;;5.38
73662;BMP280;61956;52.540;13.382;2022-12-20T05:08:24;105044.38;;;5.38
73662;BMP280;61956;52.540;13.382;2022-12-20T05:10:53;105648.94;;;5.39
73662;BMP280;61956;52.540;13.382;2022-12-20T05:13:23;106224.31;;;5.42
73662;BMP280;61956;52.540;13.382;2022-12-20T05:15:52;105573.28;;;5.40
73662;BMP280;61956;52.540;13.382;2022-12-20T05:18:28;106071.41;;;5.42
73662;BMP280;61956;52.540;13.382;2022-12-20T05:21:02;106625.44;;;5.45
73662;BMP280;61956;52.540;13.382;2022-12-20T05:23:47;107007.81;;;5.47
73662;BMP280;61956;52.540;13.382;2022-12-20T05:26:33;106897.75;;;5.49
73662;BMP280;61956;52.540;13.382;2022-12-20T05:29:05;106325.63;;;5.44
73662;BMP280;61956;52.540;13.382;2022-12-20T05:31:34;107341.16;;;5.50
73662;BMP280;61956;52.540;13.382;2022-12-20T05:34:06;108003.91;;;5.55
73662;BMP280;61956;52.540;13.382;2022-12-20T05:36:37;106767.13;;;5.48
73662;BMP280;61956;52.540;13.382;2022-12-20T05:39:07;106408.03;;;5.46
73662;BMP280;61956;52.540;13.382;2022-12-20T05:41:39;107967.81;;;5.55
73662;BMP280;61956;52.540;13.382;2022-12-20T05:44:09;109374.91;;;5.65
73662;BMP280;61956;52.540;13.382;2022-12-20T05:46:42;110046.22;;;5.71
73662;BMP280;61956;52.540;13.382;2022-12-20T05:49:19;109726.09;;;5.71
73662;BMP280;61956;52.540;13.382;2022-12-20T05:51:48;109668.41;;;5.70
73662;BMP280;61956;52.540;13.382;2022-12-20T05:54:22;109985.16;;;5.73
73662;BMP280;61956;52.540;13.382;2022-12-20T05:57:11;110638.66;;;5.79
73662;BMP280;61956;52.540;13.382;2022-12-20T05:59:41;111362.19;;;5.85
73662;BMP280;61956;52.540;13.382;2022-12-20T06:02:21;111781.03;;;5.90
73662;BMP280;61956;52.540;13.382;2022-12-20T06:04:59;112630.94;;;5.97
73662;BMP280;61956;52.540;13.382;2022-12-20T06:07:29;112589.56;;;5.97
73662;BMP280;61956;52.540;13.382;2022-12-20T06:09:59;112044.09;;;5.95
73662;BMP280;61956;52.540;13.382;2022-12-20T06:12:41;111277.31;;;5.93
73662;BMP280;61956;52.540;13.382;2022-12-20T06:15:11;111518.53;;;5.95
73662;BMP280;61956;52.540;13.382;2022-12-20T06:17:41;111680.63;;;5.97
73662;BMP280;61956;52.540;13.382;2022-12-20T06:20:14;111634.09;;;5.97
73662;BMP280;61956;52.540;13.382;2022-12-20T06:22:46;112158.19;;;6.02
73662;BMP280;61956;52.540;13.382;2022-12-20T06:25:15;111307.69;;;5.98
73662;BMP280;61956;52.540;13.382;2022-12-20T06:27:45;112217.81;;;6.05
73662;BMP280;61956;52.540;13.382;2022-12-20T06:30:16;112034.28;;;6.05
73662;BMP280;61956;52.540;13.382;2022-12-20T06:32:59;111774.03;;;6.04
73662;BMP280;61956;52.540;13.382;2022-12-20T06:35:31;111139.00;;;6.01
73662;BMP280;61956;52.540;13.382;2022-12-20T06:38:00;111739.59;;;6.05
73662;BMP280;61956;52.540;13.382;2022-12-20T06:40:33;111920.75;;;6.08
73662;BMP280;61956;52.540;13.382;2022-12-20T06:43:02;111875.06;;;6.08
73662;BMP280;61956;52.540;13.382;2022-12-20T06:45:32;111782.00;;;6.08
73662;BMP280;61956;52.540;13.382;2022-12-20T06:48:01;111539.91;;;6.09
73662;BMP280;61956;52.540;13.382;2022-12-20T06:50:36;111006.53;;;6.05
73662;BMP280;61956;52.540;13.382;2022-12-20T06:53:06;110961.78;;;6.06
73662;BMP280;61956;52.540;13.382;2022-12-20T06:55:35;111242.63;;;6.07
73662;BMP280;61956;52.540;13.382;2022-12-20T06:58:04;111311.59;;;6.08
73662;BMP280;61956;52.540;13.382;2022-12-20T07:00:36;111453.00;;;6.11
73662;BMP280;61956;52.540;13.382;2022-12-20T07:03:05;111452.19;;;6.12
73662;BMP280;61956;52.540;13.382;2022-12-20T07:05:37;111074.78;;;6.10
73662;BMP280;61956;52.540;13.382;2022-12-20T07:08:06;110659.53;;;6.09
73662;BMP280;61956;52.540;13.382;2022-12-20T07:10:36;110957.56;;;6.10
73662;BMP280;61956;52.540;13.382;2022-12-20T07:13:06;111011.94;;;6.11
73662;BMP280;61956;52.540;13.382;2022-12-20T07:15:35;110985.25;;;6.12
73662;BMP280;61956;52.540;13.382;2022-12-20T07:18:04;110326.22;;;6.09
73662;BMP280;61956;52.540;13.382;2022-12-20T07:20:37;110740.56;;;6.11
73662;BMP280;61956;52.540;13.382;2022-12-20T07:23:06;110246.97;;;6.08
73662;BMP280;61956;52.540;13.382;2022-12-20T07:25:35;110134.16;;;6.09
73662;BMP280;61956;52.540;13.382;2022-12-20T07:28:05;110279.72;;;6.09
73662;BMP280;61956;52.540;13.382;2022-12-20T07:30:34;109922.31;;;6.09
73662;BMP280;61956;52.540;13.382;2022-12-20T07:33:04;111058.66;;;6.16
73662;BMP280;61956;52.540;13.382;2022-12-20T07:35:33;111845.63;;;6.21
73662;BMP280;61956;52.540;13.382;2022-12-20T07:38:05;112952.19;;;6.30
73662;BMP280;61956;52.540;13.382;2022-12-20T07:40:34;112844.53;;;6.32
73662;BMP280;61956;52.540;13.382;2022-12-20T07:43:04;112352.09;;;6.30
73662;BMP280;61956;52.540;13.382;2022-12-20T07:45:34;112279.69;;;6.30
73662;BMP280;61956;52.540;13.382;2022-12-20T07:48:03;111770.13;;;6.28
73662;BMP280;61956;52.540;13.382;2022-12-20T07:50:33;112322.03;;;6.32
73662;BMP280;61956;52.540;13.382;2022-12-20T07:53:07;112260.06;;;6.33
73662;BMP280;61956;52.540;13.382;2022-12-20T07:55:38;112332.59;;;6.35
73662;BMP280;61956;52.540;13.382;2022-12-20T07:58:08;111601.34;;;6.31
73662;BMP280;61956;52.540;13.382;2022-12-20T08:00:40;111666.88;;;6.31
73662;BMP280;61956;52.540;13.382;2022-12-20T08:03:12;111660.91;;;6.32
73662;BMP280;61956;52.540;13.382;2022-12-20T08:05:49;111082.50;;;6.30
73662;BMP280;61956;52.540;13.382;2022-12-20T08:08:21;110943.69;;;6.29
73662;BMP280;61956;52.540;13.382;2022-12-20T08:10:52;111226.44;;;6.31
73662;BMP280;61956;52.540;13.382;2022-12-20T08:13:21;111404.94;;;6.32
73662;BMP280;61956;52.540;13.382;2022-12-20T08:15:50;111992.13;;;6.37
73662;BMP280;61956;52.540;13.382;2022-12-20T08:18:20;112394.13;;;6.40
73662;BMP280;61956;52.540;13.382;2022-12-20T08:20:51;112664.25;;;6.44
73662;BMP280;61956;52.540;13.382;2022-12-20T08:23:20;112529.72;;;6.44
73662;BMP280;61956;52.540;13.382;2022-12-20T08:25:49;113366.84;;;6.51
73662;BMP280;61956;52.540;13.382;2022-12-20T08:28:19;113303.03;;;6.51
73662;BMP280;61956;52.540;13.382;2022-12-20T08:30:48;113096.00;;;6.51
73662;BMP280;61956;52.540;13.382;2022-12-20T08:33:17;112948.50;;;6.51
73662;BMP280;61956;52.540;13.382;2022-12-20T08:35:47;113064.28;;;6.54
73662;BMP280;61956;52.540;13.382;2022-12-20T08:38:27;113467.38;;;6.56
73662;BMP280;61956;52.540;13.382;2022-12-20T08:41:02;113702.44;;;6.60
73662;BMP280;61956;52.540;13.382;2022-12-20T08:43:32;113744.00;;;6.62
73662;BMP280;61956;52.540;13.382;2022-12-20T08:46:02;113836.38;;;6.63
73662;BMP280;61956;52.540;13.382;2022-12-20T08:48:32;113731.13;;;6.63
73662;BMP280;61956;52.540;13.382;2022-12-20T08:51:03;113982.56;;;6.66
73662;BMP280;61956;52.540;13.382;2022-12-20T08:53:37;114175.19;;;6.68
73662;BMP280;61956;52.540;13.382;2022-12-20T08:56:08;114278.16;;;6.71
73662;BMP280;61956;52.540;13.382;2022-12-20T08:58:39;114661.03;;;6.75
73662;BMP280;61956;52.540;13.382;2022-12-20T09:01:11;114842.47;;;6.77
73662;BMP280;61956;52.540;13.382;2022-12-20T09:03:40;115233.41;;;6.82
73662;BMP280;61956;52.540;13.382;2022-12-20T09:06:12;115294.81;;;6.83
73662;BMP280;61956;52.540;13.382;2022-12-20T09:08:46;115951.19;;;6.89
73662;BMP280;61956;52.540;13.382;2022-12-20T09:11:16;115892.84;;;6.93
73662;BMP280;61956;52.540;13.382;2022-12-20T09:13:49;115817.69;;;6.93
73662;BMP280;61956;52.540;13.382;2022-12-20T09:16:21;116501.19;;;7.00
73662;BMP280;61956;52.540;13.382;2022-12-20T09:18:52;116571.41;;;7.01
73662;BMP280;61956;52.540;13.382;2022-12-20T09:21:23;116898.94;;;7.07
73662;BMP280;61956;52.540;13.382;2022-12-20T09:23:56;117241.03;;;7.11
73662;BMP280;61956;52.540;13.382;2022-12-20T09:26:25;117651.56;;;7.16
73662;BMP280;61956;52.540;13.382;2022-12-20T09:28:55;118164.63;;;7.23
73662;BMP280;61956;52.540;13.382;2022-12-20T09:31:27;118477.72;;;7.28
73662;BMP280;61956;52.540;13.382;2022-12-20T09:33:57;119100.19;;;7.34
73662;BMP280;61956;52.540;13.382;2022-12-20T09:36:28;119493.38;;;7.41
73662;BMP280;61956;52.540;13.382;2022-12-20T09:39:00;119638.41;;;7.43
73662;BMP280;61956;52.540;13.382;2022-12-20T09:41:32;120110.00;;;7.51
73662;BMP280;61956;52.540;13.382;2022-12-20T09:44:11;120508.44;;;7.55
73662;BMP280;61956;52.540;13.382;2022-12-20T09:46:46;120594.09;;;7.59
73662;BMP280;61956;52.540;13.382;2022-12-20T09:49:22;120884.75;;;7.66
73662;BMP280;61956;52.540;13.382;2022-12-20T09:52:13;120389.22;;;7.67
73662;BMP280;61956;52.540;13.382;2022-12-20T09:55:13;119785.03;;;7.65
73662;BMP280;61956;52.540;13.382;2022-12-20T09:58:00;119724.19;;;7.68
73662;BMP280;61956;52.540;13.382;2022-12-20T10:00:40;119831.28;;;7.71
73662;BMP280;61956;52.540;13.382;2022-12-20T10:03:19;120068.59;;;7.76
73662;BMP280;61956;52.540;13.382;2022-12-20T10:05:51;120202.03;;;7.80
73662;BMP280;61956;52.540;13.382;2022-12-20T10:08:43;120528.81;;;7.86
73662;BMP280;61956;52.540;13.382;2022-12-20T10:11:32;120849.53;;;7.90
73662;BMP280;61956;52.540;13.382;2022-12-20T10:14:22;121462.25;;;7.98
73662;BMP280;61956;52.540;13.382;2022-12-20T10:17:09;122053.81;;;8.06
73662;BMP280;61956;52.540;13.382;2022-12-20T10:20:01;122278.94;;;8.13
73662;BMP280;61956;52.540;13.382;2022-12-20T10:22:44;122169.66;;;8.17
73662;BMP280;61956;52.540;13.382;2022-12-20T10:25:18;121870.59;;;8.18
73662;BMP280;61956;52.540;13.382;2022-12-20T10:27:55;121714.13;;;8.21
73662;BMP280;61956;52.540;13.382;2022-12-20T10:30:26;121376.78;;;8.21
73662;BMP280;61956;52.540;13.382;2022-12-20T10:32:56;120812.13;;;8.21
73662;BMP280;61956;52.540;13.382;2022-12-20T10:35:28;120283.72;;;8.20
73662;BMP280;61956;52.540;13.382;2022-12-20T10:38:00;120300.56;;;8.22
73662;BMP280;61956;52.540;13.382;2022-12-20T10:40:33;119980.88;;;8.23
73662;BMP280;61956;52.540;13.382;2022-12-20T10:43:14;119674.63;;;8.22
73662;BMP280;61956;52.540;13.382;2022-12-20T10:45:56;119245.53;;;8.22
73662;BMP280;61956;52.540;13.382;2022-12-20T10:48:30;119176.53;;;8.24
73662;BMP280;61956;52.540;13.382;2022-12-20T10:51:01;119039.63;;;8.25
73662;BMP280;61956;52.540;13.382;2022-12-20T10:53:32;119894.03;;;8.33
73662;BMP280;61956;52.540;13.382;2022-12-20T10:56:15;120462.34;;;8.39
73662;BMP280;61956;52.540;13.382;2022-12-20T10:58:58;120454.41;;;8.43
73662;BMP280;61956;52.540;13.382;2022-12-20T11:01:30;120677.47;;;8.48
73662;BMP280;61956;52.540;13.382;2022-12-20T11:04:03;120136.81;;;8.47
73662;BMP280;61956;52.540;13.382;2022-12-20T11:06:43;120281.41;;;8.50
73662;BMP280;61956;52.540;13.382;2022-12-20T11:09:25;120369.81;;;8.55
73662;BMP280;61956;52.540;13.382;2022-12-20T11:12:04;120447.78;;;8.59
73662;BMP280;61956;52.540;13.382;2022-12-20T11:14:38;120331.88;;;8.61
73662;BMP280;61956;52.540;13.382;2022-12-20T11:17:18;120238.72;;;8.64
73662;BMP280;61956;52.540;13.382;2022-12-20T11:20:11;118965.09;;;8.58
73662;BMP280;61956;52.540;13.382;2022-12-20T11:23:02;119708.66;;;8.64
73662;BMP280;61956;52.540;13.382;2022-12-20T11:25:54;120434.38;;;8.71
73662;BMP280;61956;52.540;13.382;2022-12-20T11:28:47;120162.50;;;8.74
73662;BMP280;61956;52.540;13.382;2022-12-20T11:31:42;120447.13;;;8.79
73662;BMP280;61956;52.540;13.382;2022-12-20T11:34:32;119824.84;;;8.79
73662;BMP280;61956;52.540;13.382;2022-12-20T11:37:17;119099.78;;;8.75
73662;BMP280;61956;52.540;13.382;2022-12-20T11:40:15;119100.28;;;8.79
73662;BMP280;61956;52.540;13.382;2022-12-20T11:43:03;119365.56;;;8.83
73662;BMP280;61956;52.540;13.382;2022-12-20T11:45:58;119265.19;;;8.85
73662;BMP280;61956;52.540;13.382;2022-12-20T11:48:54;118970.38;;;8.86
73662;BMP280;61956;52.540;13.382;2022-12-20T11:51:48;117958.28;;;8.82
73662;BMP280;61956;52.540;13.382;2022-12-20T11:54:28;117257.16;;;8.78
73662;BMP280;61956;52.540;13.382;2022-12-20T11:57:05;116728.06;;;8.76
73662;BMP280;61956;52.540;13.382;2022-12-20T11:59:45;117073.41;;;8.79
73662;BMP280;61956;52.540;13.382;2022-12-20T12:02:23;117427.53;;;8.82
73662;BMP280;61956;52.540;13.382;2022-12-20T12:05:01;117831.44;;;8.86
73662;BMP280;61956;52.540;13.382;2022-12-20T12:07:33;118285.81;;;8.91
73662;BMP280;61956;52.540;13.382;2022-12-20T12:10:14;118461.81;;;8.96
73662;BMP280;61956;52.540;13.382;2022-12-20T12:12:52;118191.13;;;8.96
73662;BMP280;61956;52.540;13.382;2022-12-20T12:15:34;118660.34;;;9.01
73662;BMP280;61956;52.540;13.382;2022-12-20T12:18:13;118392.44;;;9.03
73662;BMP280;61956;52.540;13.382;2022-12-20T12:20:55;118090.50;;;9.03
73662;BMP280;61956;52.540;13.382;2022-12-20T12:23:32;117623.66;;;9.02
73662;BMP280;61956;52.540;13.382;2022-12-20T12:26:11;118308.34;;;9.09
73662;BMP280;61956;52.540;13.382;2022-12-20T12:28:49;118090.63;;;9.10
73662;BMP280;61956;52.540;13.382;2022-12-20T12:31:26;117487.50;;;9.09
73662;BMP280;61956;52.540;13.382;2022-12-20T12:34:08;116971.88;;;9.06
73662;BMP280;61956;52.540;13.382;2022-12-20T12:40:35;116584.38;;;9.07
73662;BMP280;61956;52.540;13.382;2022-12-20T12:43:45;116200.09;;;9.06
73662;BMP280;61956;52.540;13.382;2022-12-20T12:46:19;116314.72;;;9.08
73662;BMP280;61956;52.540;13.382;2022-12-20T12:48:57;116632.66;;;9.12
73662;BMP280;61956;52.540;13.382;2022-12-20T12:51:32;116375.06;;;9.12
73662;BMP280;61956;52.540;13.382;2022-12-20T12:54:18;115945.63;;;9.11
73662;BMP280;61956;52.540;13.382;2022-12-20T12:56:51;115614.38;;;9.10
73662;BMP280;61956;52.540;13.382;2022-12-20T12:59:38;114913.59;;;9.07
73662;BMP280;61956;52.540;13.382;2022-12-20T13:02:34;115163.22;;;9.07
73662;BMP280;61956;52.540;13.382;2022-12-20T13:05:32;114872.00;;;9.07
73662;BMP280;61956;52.540;13.382;2022-12-20T13:08:03;114821.69;;;9.06
73662;BMP280;61956;52.540;13.382;2022-12-20T13:11:00;114460.16;;;9.05
73662;BMP280;61956;52.540;13.382;2022-12-20T13:13:31;114040.63;;;9.03
73662;BMP280;61956;52.540;13.382;2022-12-20T13:16:08;113583.06;;;9.01
73662;BMP280;61956;52.540;13.382;2022-12-20T13:18:55;112680.19;;;8.94
73662;BMP280;61956;52.540;13.382;2022-12-20T13:21:34;112585.78;;;8.94
73662;BMP280;61956;52.540;13.382;2022-12-20T13:27:37;111618.50;;;8.87
73662;BMP280;61956;52.540;13.382;2022-12-20T13:30:22;111141.50;;;8.82
73662;BMP280;61956;52.540;13.382;2022-12-20T13:36:34;111203.78;;;8.82
73662;BMP280;61956;52.540;13.382;2022-12-20T13:39:33;111280.00;;;8.84
73662;BMP280;61956;52.540;13.382;2022-12-20T13:42:18;110889.66;;;8.79
73662;BMP280;61956;52.540;13.382;2022-12-20T13:45:00;110564.31;;;8.76
73662;BMP280;61956;52.540;13.382;2022-12-20T13:47:43;110130.94;;;8.73
73662;BMP280;61956;52.540;13.382;2022-12-20T13:50:23;110052.19;;;8.71
73662;BMP280;61956;52.540;13.382;2022-12-20T13:52:53;109544.59;;;8.69
73662;BMP280;61956;52.540;13.382;2022-12-20T13:55:31;109152.06;;;8.65
73662;BMP280;61956;52.540;13.382;2022-12-20T13:58:09;108757.06;;;8.62
73662;BMP280;61956;52.540;13.382;2022-12-20T14:00:44;108430.44;;;8.59
73662;BMP280;61956;52.540;13.382;2022-12-20T14:03:19;108301.72;;;8.56
73662;BMP280;61956;52.540;13.382;2022-12-20T14:05:55;108188.56;;;8.53
73662;BMP280;61956;52.540;13.382;2022-12-20T14:08:29;108141.91;;;8.53
73662;BMP280;61956;52.540;13.382;2022-12-20T14:11:09;108101.28;;;8.52
73662;BMP280;61956;52.540;13.382;2022-12-20T14:13:40;107987.31;;;8.51
73662;BMP280;61956;52.540;13.382;2022-12-20T14:16:15;107975.19;;;8.50
73662;BMP280;61956;52.540;13.382;2022-12-20T14:18:48;107896.59;;;8.49
73662;BMP280;61956;52.540;13.382;2022-12-20T14:21:18;107396.63;;;8.45
73662;BMP280;61956;52.540;13.382;2022-12-20T14:23:48;107115.16;;;8.42
73662;BMP280;61956;52.540;13.382;2022-12-20T14:26:23;107400.97;;;8.43
73662;BMP280;61956;52.540;13.382;2022-12-20T14:28:55;106925.31;;;8.39
73662;BMP280;61956;52.540;13.382;2022-12-20T14:31:36;106928.81;;;8.38
73662;BMP280;61956;52.540;13.382;2022-12-20T14:34:12;106823.53;;;8.37
73662;BMP280;61956;52.540;13.382;2022-12-20T14:36:45;106955.63;;;8.37
73662;BMP280;61956;52.540;13.382;2022-12-20T14:39:22;106764.00;;;8.35
73662;BMP280;61956;52.540;13.382;2022-12-20T14:41:55;106182.38;;;8.31
73662;BMP280;61956;52.540;13.382;2022-12-20T14:44:26;105939.97;;;8.28
73662;BMP280;61956;52.540;13.382;2022-12-20T14:47:01;105880.59;;;8.25
73662;BMP280;61956;52.540;13.382;2022-12-20T14:49:47;105533.91;;;8.22
73662;BMP280;61956;52.540;13.382;2022-12-20T14:52:24;104864.00;;;8.16
73662;BMP280;61956;52.540;13.382;2022-12-20T14:55:04;105271.84;;;8.19